AAL194 EGLL-KPHX
Flight info
| Callsign | AAL194 |
|---|---|
| Flight time | N/A |
| Altitude | 34000 |
| Route | ULTIB T420 TNT UL28 RODOL UM65 TENSO L603 BELOX DCT APSOV DCT SUNOT/M084F350 DCT 58N020W 58N030W 58N040W 57N050W DCT HOIST/N0491F360 DCT ELINU DCT YMT DCT SSM/N0481F380 J101 GRB DCT MCW DCT EAR DCT LAA J102 GUP EAGUL6 |
| Aircraft | B77L/H-SDE1E2E3FGHIJ2J3J4J5M1RWXY/LB1D1 |
Departure
| Time | 2026-05-05 18:58 |
|---|---|
| Airport | London Heathrow Airport (EGLL) |
Arrival
| Time | N/A |
|---|---|
| Airport | Phoenix Sky Harbor International Airport (KPHX) |
| Time | Latitude | Longitude | Altitude | Speed | Heading |
|---|---|---|---|---|---|
| 2026-05-05 18:11 | 51.47345 | -0.46182 | 77 ft | 0 kts | 236° |
| 2026-05-05 18:40 | 51.47347 | -0.46177 | 89 ft | 3 kts | 237° |
| 2026-05-05 18:40 | 51.47360 | -0.46141 | 91 ft | 4 kts | 254° |
| 2026-05-05 18:41 | 51.47363 | -0.46101 | 91 ft | 4 kts | 278° |
| 2026-05-05 18:41 | 51.47356 | -0.46064 | 91 ft | 4 kts | 306° |
| 2026-05-05 18:41 | 51.47340 | -0.46037 | 93 ft | 1 kts | 325° |
| 2026-05-05 18:41 | 51.47339 | -0.46036 | 93 ft | 0 kts | 325° |
| 2026-05-05 18:48 | 51.47348 | -0.46046 | 92 ft | 7 kts | 325° |
| 2026-05-05 18:48 | 51.47426 | -0.46131 | 94 ft | 19 kts | 326° |
| 2026-05-05 18:48 | 51.47513 | -0.46324 | 93 ft | 23 kts | 276° |
| 2026-05-05 18:48 | 51.47516 | -0.46562 | 89 ft | 19 kts | 270° |
| 2026-05-05 18:49 | 51.47500 | -0.46773 | 91 ft | 19 kts | 259° |
| 2026-05-05 18:49 | 51.47424 | -0.46896 | 90 ft | 18 kts | 175° |
| 2026-05-05 18:49 | 51.47304 | -0.46870 | 92 ft | 18 kts | 179° |
| 2026-05-05 18:49 | 51.47181 | -0.46870 | 92 ft | 18 kts | 180° |
| 2026-05-05 18:50 | 51.47058 | -0.46869 | 92 ft | 18 kts | 180° |
| 2026-05-05 18:50 | 51.46936 | -0.46869 | 92 ft | 18 kts | 180° |
| 2026-05-05 18:50 | 51.46818 | -0.46867 | 89 ft | 16 kts | 179° |
| 2026-05-05 18:50 | 51.46705 | -0.46871 | 93 ft | 16 kts | 195° |
| 2026-05-05 18:51 | 51.46657 | -0.47020 | 93 ft | 16 kts | 270° |
| 2026-05-05 18:51 | 51.46658 | -0.47201 | 91 ft | 16 kts | 270° |
| 2026-05-05 18:51 | 51.46657 | -0.47383 | 89 ft | 16 kts | 270° |
| 2026-05-05 18:51 | 51.46657 | -0.47564 | 89 ft | 16 kts | 270° |
| 2026-05-05 18:52 | 51.46656 | -0.47746 | 89 ft | 16 kts | 269° |
| 2026-05-05 18:52 | 51.46656 | -0.47917 | 91 ft | 15 kts | 270° |
| 2026-05-05 18:52 | 51.46656 | -0.48054 | 92 ft | 0 kts | 269° |
| 2026-05-05 18:53 | 51.46654 | -0.48175 | 93 ft | 18 kts | 270° |
| 2026-05-05 18:53 | 51.46654 | -0.48353 | 91 ft | 12 kts | 269° |
| 2026-05-05 18:54 | 51.46628 | -0.48446 | 96 ft | 1 kts | 219° |
| 2026-05-05 18:56 | 51.46626 | -0.48448 | 96 ft | 2 kts | 217° |
| 2026-05-05 18:56 | 51.46576 | -0.48469 | 96 ft | 10 kts | 182° |
| 2026-05-05 18:57 | 51.46495 | -0.48439 | 94 ft | 14 kts | 132° |
| 2026-05-05 18:57 | 51.46481 | -0.48373 | 95 ft | 0 kts | 96° |
| 2026-05-05 18:57 | 51.46480 | -0.48341 | 93 ft | 20 kts | 92° |
| 2026-05-05 18:57 | 51.46482 | -0.47723 | 88 ft | 91 kts | 89° |
| 2026-05-05 18:58 | 51.46487 | -0.46355 | 95 ft | 152 kts | 89° |
| 2026-05-05 18:58 | 51.46501 | -0.44394 | 293 ft | 184 kts | 90° |
| 2026-05-05 18:58 | 51.46555 | -0.42420 | 1115 ft | 176 kts | 80° |
| 2026-05-05 18:58 | 51.46930 | -0.40510 | 1619 ft | 184 kts | 59° |
| 2026-05-05 18:59 | 51.47711 | -0.38781 | 1744 ft | 197 kts | 51° |
| 2026-05-05 18:59 | 51.48608 | -0.37018 | 1864 ft | 210 kts | 50° |
| 2026-05-05 18:59 | 51.49564 | -0.35166 | 2102 ft | 218 kts | 50° |
| 2026-05-05 18:59 | 51.50545 | -0.33275 | 2395 ft | 228 kts | 50° |
| 2026-05-05 19:00 | 51.51593 | -0.31251 | 2578 ft | 242 kts | 50° |
| 2026-05-05 19:00 | 51.52509 | -0.28971 | 2836 ft | 248 kts | 68° |
| 2026-05-05 19:00 | 51.53058 | -0.26295 | 3173 ft | 254 kts | 69° |
| 2026-05-05 19:00 | 51.53637 | -0.23611 | 3720 ft | 254 kts | 68° |
| 2026-05-05 19:01 | 51.54239 | -0.20931 | 4191 ft | 255 kts | 64° |
| 2026-05-05 19:01 | 51.55322 | -0.18711 | 4437 ft | 256 kts | 29° |
| 2026-05-05 19:01 | 51.57015 | -0.18027 | 4916 ft | 254 kts | 353° |
| 2026-05-05 19:01 | 51.58614 | -0.19088 | 5405 ft | 258 kts | 320° |
| 2026-05-05 19:02 | 51.59896 | -0.21134 | 5699 ft | 262 kts | 318° |
| 2026-05-05 19:02 | 51.61294 | -0.23030 | 6077 ft | 262 kts | 325° |
| 2026-05-05 19:02 | 51.62809 | -0.24718 | 6076 ft | 266 kts | 328° |
| 2026-05-05 19:02 | 51.64371 | -0.26288 | 6080 ft | 263 kts | 330° |
| 2026-05-05 19:03 | 51.65948 | -0.27759 | 6077 ft | 261 kts | 330° |
| 2026-05-05 19:03 | 51.67506 | -0.29256 | 6076 ft | 260 kts | 329° |
| 2026-05-05 19:03 | 51.69061 | -0.30773 | 6080 ft | 262 kts | 330° |
| 2026-05-05 19:03 | 51.70626 | -0.32294 | 6091 ft | 263 kts | 330° |
| 2026-05-05 19:04 | 51.72182 | -0.33798 | 6328 ft | 264 kts | 330° |
| 2026-05-05 19:04 | 51.73767 | -0.35326 | 6839 ft | 263 kts | 330° |
| 2026-05-05 19:04 | 51.75351 | -0.36850 | 7229 ft | 267 kts | 330° |
| 2026-05-05 19:04 | 51.76933 | -0.38369 | 7696 ft | 267 kts | 329° |
| 2026-05-05 19:05 | 51.78558 | -0.39931 | 8046 ft | 270 kts | 329° |
| 2026-05-05 19:05 | 51.80151 | -0.41463 | 8514 ft | 270 kts | 329° |
| 2026-05-05 19:05 | 51.81774 | -0.43036 | 8893 ft | 273 kts | 329° |
| 2026-05-05 19:05 | 51.83401 | -0.44623 | 9346 ft | 274 kts | 328° |
| 2026-05-05 19:06 | 51.85043 | -0.46228 | 9782 ft | 275 kts | 328° |
| 2026-05-05 19:06 | 51.86689 | -0.47839 | 10184 ft | 277 kts | 328° |
| 2026-05-05 19:06 | 51.88382 | -0.49496 | 10370 ft | 289 kts | 328° |
| 2026-05-05 19:06 | 51.90131 | -0.51208 | 10452 ft | 304 kts | 328° |
| 2026-05-05 19:07 | 51.91989 | -0.53029 | 10596 ft | 319 kts | 328° |
| 2026-05-05 19:07 | 51.93274 | -0.54290 | 10656 ft | 330 kts | 328° |
| 2026-05-05 19:07 | 51.95994 | -0.56953 | 10909 ft | 349 kts | 328° |
| 2026-05-05 19:07 | 51.98094 | -0.59000 | 11410 ft | 355 kts | 328° |
| 2026-05-05 19:08 | 52.00198 | -0.61050 | 11938 ft | 359 kts | 328° |
| 2026-05-05 19:08 | 52.02343 | -0.63145 | 12566 ft | 362 kts | 328° |
| 2026-05-05 19:08 | 52.04522 | -0.65276 | 13147 ft | 368 kts | 327° |
| 2026-05-05 19:08 | 52.06738 | -0.67446 | 13700 ft | 374 kts | 327° |
| 2026-05-05 19:09 | 52.08984 | -0.69649 | 14233 ft | 379 kts | 327° |
| 2026-05-05 19:09 | 52.11251 | -0.71875 | 14878 ft | 380 kts | 327° |
| 2026-05-05 19:09 | 52.13529 | -0.74116 | 15423 ft | 385 kts | 327° |
| 2026-05-05 19:09 | 52.15803 | -0.76362 | 16014 ft | 388 kts | 327° |
| 2026-05-05 19:10 | 52.18118 | -0.78658 | 16578 ft | 392 kts | 327° |
| 2026-05-05 19:10 | 52.20472 | -0.80995 | 17109 ft | 397 kts | 327° |
| 2026-05-05 19:10 | 52.22847 | -0.83356 | 17628 ft | 403 kts | 327° |
| 2026-05-05 19:10 | 52.25261 | -0.85756 | 18155 ft | 408 kts | 327° |
| 2026-05-05 19:11 | 52.27713 | -0.88189 | 18615 ft | 414 kts | 327° |
| 2026-05-05 19:11 | 52.30183 | -0.90637 | 19116 ft | 417 kts | 327° |
| 2026-05-05 19:11 | 52.32671 | -0.93104 | 19693 ft | 419 kts | 327° |
| 2026-05-05 19:11 | 52.35135 | -0.95552 | 20269 ft | 421 kts | 327° |
| 2026-05-05 19:12 | 52.37653 | -0.98058 | 20786 ft | 424 kts | 327° |
| 2026-05-05 19:12 | 52.40189 | -1.00587 | 21296 ft | 428 kts | 327° |
| 2026-05-05 19:12 | 52.42740 | -1.03134 | 21804 ft | 431 kts | 327° |
| 2026-05-05 19:12 | 52.44437 | -1.04829 | 22133 ft | 432 kts | 327° |
| 2026-05-05 19:13 | 52.47021 | -1.07415 | 22614 ft | 435 kts | 327° |
| 2026-05-05 19:13 | 52.49617 | -1.10018 | 23094 ft | 438 kts | 326° |
| 2026-05-05 19:13 | 52.52224 | -1.12658 | 23542 ft | 441 kts | 326° |
| 2026-05-05 19:13 | 52.54847 | -1.15324 | 23912 ft | 444 kts | 326° |
| 2026-05-05 19:14 | 52.57491 | -1.18011 | 24266 ft | 447 kts | 326° |
| 2026-05-05 19:14 | 52.60143 | -1.20697 | 24601 ft | 450 kts | 326° |
| 2026-05-05 19:14 | 52.62787 | -1.23373 | 24933 ft | 452 kts | 326° |
| 2026-05-05 19:14 | 52.65479 | -1.26102 | 25260 ft | 455 kts | 326° |
| 2026-05-05 19:15 | 52.68187 | -1.28852 | 25585 ft | 457 kts | 326° |
| 2026-05-05 19:15 | 52.70904 | -1.31616 | 25896 ft | 460 kts | 326° |
| 2026-05-05 19:15 | 52.73641 | -1.34402 | 26250 ft | 462 kts | 326° |
| 2026-05-05 19:15 | 52.76358 | -1.37167 | 26554 ft | 464 kts | 326° |
| 2026-05-05 19:16 | 52.79117 | -1.39980 | 26861 ft | 466 kts | 326° |
| 2026-05-05 19:16 | 52.81884 | -1.42805 | 27154 ft | 468 kts | 326° |
| 2026-05-05 19:16 | 52.84658 | -1.45642 | 27429 ft | 470 kts | 326° |
| 2026-05-05 19:16 | 52.87451 | -1.48503 | 27699 ft | 472 kts | 326° |
| 2026-05-05 19:17 | 52.90254 | -1.51379 | 27963 ft | 474 kts | 326° |
| 2026-05-05 19:17 | 52.93035 | -1.54237 | 28218 ft | 475 kts | 326° |
| 2026-05-05 19:17 | 52.95848 | -1.57132 | 28464 ft | 476 kts | 326° |
| 2026-05-05 19:17 | 52.98672 | -1.60044 | 28698 ft | 478 kts | 326° |
| 2026-05-05 19:18 | 53.01500 | -1.62963 | 28931 ft | 479 kts | 327° |
| 2026-05-05 19:18 | 53.04337 | -1.65895 | 29150 ft | 480 kts | 326° |
| 2026-05-05 19:18 | 53.07148 | -1.68808 | 29344 ft | 481 kts | 326° |
| 2026-05-05 19:18 | 53.09995 | -1.71769 | 29544 ft | 482 kts | 327° |
| 2026-05-05 19:19 | 53.12851 | -1.74743 | 29781 ft | 482 kts | 327° |
| 2026-05-05 19:19 | 53.15696 | -1.77714 | 30043 ft | 481 kts | 327° |
| 2026-05-05 19:19 | 53.18527 | -1.80674 | 30273 ft | 480 kts | 327° |
| 2026-05-05 19:19 | 53.21324 | -1.83601 | 30491 ft | 479 kts | 327° |
| 2026-05-05 19:20 | 53.24149 | -1.86562 | 30694 ft | 479 kts | 327° |
| 2026-05-05 19:20 | 53.27012 | -1.89426 | 30905 ft | 479 kts | 329° |
| 2026-05-05 19:20 | 53.29917 | -1.92159 | 31104 ft | 478 kts | 329° |
| 2026-05-05 19:20 | 53.32834 | -1.94852 | 31307 ft | 478 kts | 329° |
| 2026-05-05 19:21 | 53.35739 | -1.97545 | 31489 ft | 477 kts | 329° |
| 2026-05-05 19:21 | 53.38602 | -2.00228 | 31668 ft | 477 kts | 329° |
| 2026-05-05 19:21 | 53.41498 | -2.02970 | 31831 ft | 477 kts | 329° |
| 2026-05-05 19:21 | 53.44381 | -2.05719 | 32008 ft | 477 kts | 328° |
| 2026-05-05 19:22 | 53.47266 | -2.08480 | 32167 ft | 476 kts | 328° |
| 2026-05-05 19:22 | 53.50152 | -2.11245 | 32338 ft | 476 kts | 328° |
| 2026-05-05 19:22 | 53.53007 | -2.13982 | 32492 ft | 476 kts | 328° |
| 2026-05-05 19:22 | 53.55879 | -2.16757 | 32620 ft | 474 kts | 326° |
| 2026-05-05 19:23 | 53.58492 | -2.20120 | 32670 ft | 472 kts | 313° |
| 2026-05-05 19:23 | 53.60589 | -2.24336 | 32788 ft | 470 kts | 302° |
| 2026-05-05 19:23 | 53.62179 | -2.29136 | 32937 ft | 465 kts | 290° |
| 2026-05-05 19:23 | 53.63335 | -2.34221 | 33020 ft | 465 kts | 289° |
| 2026-05-05 19:24 | 53.64442 | -2.39269 | 33143 ft | 466 kts | 289° |
| 2026-05-05 19:24 | 53.65565 | -2.44393 | 33315 ft | 465 kts | 289° |
| 2026-05-05 19:24 | 53.66695 | -2.49494 | 33533 ft | 463 kts | 289° |
| 2026-05-05 19:24 | 53.67832 | -2.54574 | 33721 ft | 462 kts | 289° |
| 2026-05-05 19:25 | 53.68972 | -2.59632 | 33898 ft | 462 kts | 289° |
| 2026-05-05 19:25 | 53.70123 | -2.64723 | 33972 ft | 463 kts | 289° |
| 2026-05-05 19:25 | 53.72404 | -2.74827 | 34037 ft | 462 kts | 289° |
| 2026-05-05 19:26 | 53.74681 | -2.84960 | 34042 ft | 459 kts | 289° |
| 2026-05-05 19:26 | 53.76925 | -2.95002 | 34050 ft | 457 kts | 289° |
| 2026-05-05 19:27 | 53.79162 | -3.05070 | 34047 ft | 457 kts | 289° |
| 2026-05-05 19:27 | 53.81397 | -3.15171 | 34050 ft | 456 kts | 289° |
| 2026-05-05 19:28 | 53.83605 | -3.25205 | 34048 ft | 457 kts | 289° |
| 2026-05-05 19:28 | 53.85820 | -3.35312 | 34041 ft | 457 kts | 289° |
| 2026-05-05 19:29 | 53.88018 | -3.45383 | 34037 ft | 458 kts | 289° |
| 2026-05-05 19:29 | 53.90788 | -3.55163 | 34035 ft | 461 kts | 298° |
| 2026-05-05 19:30 | 53.94015 | -3.64587 | 34035 ft | 461 kts | 298° |
| 2026-05-05 19:30 | 53.97217 | -3.73966 | 34031 ft | 462 kts | 298° |
| 2026-05-05 19:31 | 54.00423 | -3.83471 | 34034 ft | 463 kts | 298° |
| 2026-05-05 19:31 | 54.03594 | -3.92955 | 34034 ft | 463 kts | 298° |
| 2026-05-05 19:32 | 54.06773 | -4.02510 | 34034 ft | 463 kts | 298° |
| 2026-05-05 19:32 | 54.09926 | -4.12024 | 34033 ft | 463 kts | 298° |
| 2026-05-05 19:33 | 54.13084 | -4.21587 | 34048 ft | 462 kts | 298° |
| 2026-05-05 19:33 | 54.16241 | -4.31183 | 34046 ft | 462 kts | 298° |
| 2026-05-05 19:34 | 54.19359 | -4.40697 | 34046 ft | 461 kts | 297° |
| 2026-05-05 19:35 | 54.24026 | -4.55012 | 34050 ft | 460 kts | 297° |
| 2026-05-05 19:35 | 54.27130 | -4.64578 | 34051 ft | 460 kts | 297° |
| 2026-05-05 19:36 | 54.30229 | -4.74165 | 34049 ft | 459 kts | 297° |
| 2026-05-05 19:36 | 54.33319 | -4.83764 | 34051 ft | 458 kts | 297° |
| 2026-05-05 19:37 | 54.36378 | -4.93305 | 34060 ft | 458 kts | 297° |
| 2026-05-05 19:37 | 54.39441 | -5.02894 | 34041 ft | 457 kts | 297° |
| 2026-05-05 19:38 | 54.42478 | -5.12444 | 34047 ft | 457 kts | 297° |
| 2026-05-05 19:38 | 54.45530 | -5.22076 | 34049 ft | 457 kts | 297° |
| 2026-05-05 19:39 | 54.48552 | -5.31651 | 34068 ft | 458 kts | 297° |
| 2026-05-05 19:39 | 54.51584 | -5.41299 | 34076 ft | 458 kts | 297° |
| 2026-05-05 19:40 | 54.54613 | -5.50972 | 34065 ft | 458 kts | 296° |